sensor_id;sensor_type;location;lat;lon;timestamp;pressure;altitude;pressure_sealevel;temperature;humidity
8697;BME280;4385;48.848;8.924;2023-12-07T00:02:07;97663.22;;;16.98;100.00
8697;BME280;4385;48.848;8.924;2023-12-07T00:04:33;97664.88;;;16.99;100.00
8697;BME280;4385;48.848;8.924;2023-12-07T00:06:58;97666.59;;;17.00;100.00
8697;BME280;4385;48.848;8.924;2023-12-07T00:09:23;97665.72;;;17.00;100.00
8697;BME280;4385;48.848;8.924;2023-12-07T00:11:49;97661.50;;;17.00;100.00
8697;BME280;4385;48.848;8.924;2023-12-07T00:14:14;97666.59;;;17.00;100.00
8697;BME280;4385;48.848;8.924;2023-12-07T00:16:39;97671.69;;;17.00;100.00
8697;BME280;4385;48.848;8.924;2023-12-07T00:19:05;97671.69;;;17.00;100.00
8697;BME280;4385;48.848;8.924;2023-12-07T00:21:30;97676.78;;;17.00;100.00
8697;BME280;4385;48.848;8.924;2023-12-07T00:23:55;97675.06;;;16.99;100.00
8697;BME280;4385;48.848;8.924;2023-12-07T00:26:20;97669.97;;;16.99;100.00
8697;BME280;4385;48.848;8.924;2023-12-07T00:28:46;97680.16;;;16.99;100.00
8697;BME280;4385;48.848;8.924;2023-12-07T00:31:11;97681.00;;;17.00;100.00
8697;BME280;4385;48.848;8.924;2023-12-07T00:33:36;97673.41;;;16.97;100.00
8697;BME280;4385;48.848;8.924;2023-12-07T00:36:02;97681.03;;;16.98;100.00
8697;BME280;4385;48.848;8.924;2023-12-07T00:38:28;97677.66;;;16.96;100.00
8697;BME280;4385;48.848;8.924;2023-12-07T00:40:54;97680.19;;;16.96;100.00
8697;BME280;4385;48.848;8.924;2023-12-07T00:43:19;97685.28;;;16.96;100.00
8697;BME280;4385;48.848;8.924;2023-12-07T00:45:44;97679.38;;;16.95;100.00
8697;BME280;4385;48.848;8.924;2023-12-07T00:48:10;97686.13;;;16.97;100.00
8697;BME280;4385;48.848;8.924;2023-12-07T00:50:35;97679.38;;;16.95;100.00
8697;BME280;4385;48.848;8.924;2023-12-07T00:53:00;97681.94;;;16.94;100.00
8697;BME280;4385;48.848;8.924;2023-12-07T00:55:26;97681.09;;;16.93;100.00
8697;BME280;4385;48.848;8.924;2023-12-07T00:57:51;97684.50;;;16.92;100.00
8697;BME280;4385;48.848;8.924;2023-12-07T01:00:16;97682.78;;;16.93;100.00
8697;BME280;4385;48.848;8.924;2023-12-07T01:02:41;97677.72;;;16.91;100.00
8697;BME280;4385;48.848;8.924;2023-12-07T01:05:07;97678.56;;;16.92;100.00
8697;BME280;4385;48.848;8.924;2023-12-07T01:07:33;97681.97;;;16.91;100.00
8697;BME280;4385;48.848;8.924;2023-12-07T01:09:59;97689.63;;;16.89;100.00
8697;BME280;4385;48.848;8.924;2023-12-07T01:12:24;97693.88;;;16.89;100.00
8697;BME280;4385;48.848;8.924;2023-12-07T01:14:49;97695.53;;;16.90;100.00
8697;BME280;4385;48.848;8.924;2023-12-07T01:17:14;97698.97;;;16.89;100.00
8697;BME280;4385;48.848;8.924;2023-12-07T01:19:40;97690.50;;;16.87;100.00
8697;BME280;4385;48.848;8.924;2023-12-07T01:22:05;97697.28;;;16.88;100.00
8697;BME280;4385;48.848;8.924;2023-12-07T01:24:30;97701.53;;;16.87;100.00
8697;BME280;4385;48.848;8.924;2023-12-07T01:26:56;97698.97;;;16.89;100.00
8697;BME280;4385;48.848;8.924;2023-12-07T01:29:21;97703.19;;;16.90;100.00
8697;BME280;4385;48.848;8.924;2023-12-07T01:31:46;97704.91;;;16.89;100.00
8697;BME280;4385;48.848;8.924;2023-12-07T01:34:12;97709.16;;;16.89;100.00
8697;BME280;4385;48.848;8.924;2023-12-07T01:36:37;97704.94;;;16.88;100.00
8697;BME280;4385;48.848;8.924;2023-12-07T01:39:02;97707.47;;;16.88;100.00
8697;BME280;4385;48.848;8.924;2023-12-07T01:41:28;97710.84;;;16.87;100.00
8697;BME280;4385;48.848;8.924;2023-12-07T01:43:53;97712.56;;;16.86;100.00
8697;BME280;4385;48.848;8.924;2023-12-07T01:46:19;97712.56;;;16.86;100.00
8697;BME280;4385;48.848;8.924;2023-12-07T01:48:44;97712.59;;;16.85;100.00
8697;BME280;4385;48.848;8.924;2023-12-07T01:51:14;97705.81;;;16.83;100.00
8697;BME280;4385;48.848;8.924;2023-12-07T01:53:40;97714.31;;;16.82;100.00
8697;BME280;4385;48.848;8.924;2023-12-07T01:56:06;97717.72;;;16.81;100.00
8697;BME280;4385;48.848;8.924;2023-12-07T01:58:32;97719.41;;;16.82;100.00
8697;BME280;4385;48.848;8.924;2023-12-07T02:00:58;97719.41;;;16.81;100.00
8697;BME280;4385;48.848;8.924;2023-12-07T02:03:23;97716.03;;;16.80;100.00
8697;BME280;4385;48.848;8.924;2023-12-07T02:05:49;97725.38;;;16.80;100.00
8697;BME280;4385;48.848;8.924;2023-12-07T02:08:16;97718.59;;;16.79;100.00
8697;BME280;4385;48.848;8.924;2023-12-07T02:10:41;97712.66;;;16.78;100.00
8697;BME280;4385;48.848;8.924;2023-12-07T02:13:07;97717.75;;;16.78;100.00
8697;BME280;4385;48.848;8.924;2023-12-07T02:15:32;97718.59;;;16.77;100.00
8697;BME280;4385;48.848;8.924;2023-12-07T02:18:14;97709.28;;;16.76;100.00
8697;BME280;4385;48.848;8.924;2023-12-07T02:21:04;97710.97;;;16.77;100.00
8697;BME280;4385;48.848;8.924;2023-12-07T02:23:34;97710.97;;;16.77;100.00
8697;BME280;4385;48.848;8.924;2023-12-07T02:26:03;97705.88;;;16.77;100.00
8697;BME280;4385;48.848;8.924;2023-12-07T02:28:28;97710.13;;;16.78;100.00
8697;BME280;4385;48.848;8.924;2023-12-07T02:30:54;97707.59;;;16.78;100.00
8697;BME280;4385;48.848;8.924;2023-12-07T02:33:20;97713.50;;;16.77;100.00
8697;BME280;4385;48.848;8.924;2023-12-07T02:35:45;97716.91;;;16.78;100.00
8697;BME280;4385;48.848;8.924;2023-12-07T02:38:11;97712.66;;;16.78;100.00
8697;BME280;4385;48.848;8.924;2023-12-07T02:40:37;97716.06;;;16.77;100.00
8697;BME280;4385;48.848;8.924;2023-12-07T02:43:03;97710.16;;;16.77;100.00
8697;BME280;4385;48.848;8.924;2023-12-07T02:45:29;97710.16;;;16.77;100.00
8697;BME280;4385;48.848;8.924;2023-12-07T02:47:57;97708.44;;;16.76;100.00
8697;BME280;4385;48.848;8.924;2023-12-07T02:50:22;97711.00;;;16.74;100.00
8697;BME280;4385;48.848;8.924;2023-12-07T02:52:47;97711.84;;;16.75;100.00
8697;BME280;4385;48.848;8.924;2023-12-07T02:55:12;97706.75;;;16.75;100.00
8697;BME280;4385;48.848;8.924;2023-12-07T02:57:38;97701.69;;;16.75;100.00
8697;BME280;4385;48.848;8.924;2023-12-07T03:00:04;97705.91;;;16.74;100.00
8697;BME280;4385;48.848;8.924;2023-12-07T03:02:37;97717.78;;;16.75;100.00
8697;BME280;4385;48.848;8.924;2023-12-07T03:05:03;97715.25;;;16.75;100.00
8697;BME280;4385;48.848;8.924;2023-12-07T03:07:29;97721.19;;;16.74;100.00
8697;BME280;4385;48.848;8.924;2023-12-07T03:09:55;97723.75;;;16.73;100.00
8697;BME280;4385;48.848;8.924;2023-12-07T03:12:20;97712.75;;;16.70;100.00
8697;BME280;4385;48.848;8.924;2023-12-07T03:14:46;97717.00;;;16.70;100.00
8697;BME280;4385;48.848;8.924;2023-12-07T03:17:12;97717.88;;;16.69;100.00
8697;BME280;4385;48.848;8.924;2023-12-07T03:19:38;97712.81;;;16.66;100.00
8697;BME280;4385;48.848;8.924;2023-12-07T03:22:04;97710.31;;;16.63;100.00
8697;BME280;4385;48.848;8.924;2023-12-07T03:24:29;97716.25;;;16.60;100.00
8697;BME280;4385;48.848;8.924;2023-12-07T03:26:54;97725.63;;;16.58;100.00
8697;BME280;4385;48.848;8.924;2023-12-07T03:29:19;97711.22;;;16.55;100.00
8697;BME280;4385;48.848;8.924;2023-12-07T03:31:45;97707.84;;;16.53;100.00
8697;BME280;4385;48.848;8.924;2023-12-07T03:34:10;97719.75;;;16.51;100.00
8697;BME280;4385;48.848;8.924;2023-12-07T03:36:36;97720.63;;;16.50;100.00
8697;BME280;4385;48.848;8.924;2023-12-07T03:39:01;97723.16;;;16.50;100.00
8697;BME280;4385;48.848;8.924;2023-12-07T03:41:28;97724.00;;;16.49;100.00
8697;BME280;4385;48.848;8.924;2023-12-07T03:43:53;97729.94;;;16.48;100.00
8697;BME280;4385;48.848;8.924;2023-12-07T03:46:18;97720.66;;;16.47;100.00
8697;BME280;4385;48.848;8.924;2023-12-07T03:48:44;97724.88;;;16.47;100.00
8697;BME280;4385;48.848;8.924;2023-12-07T03:51:12;97724.00;;;16.48;100.00
8697;BME280;4385;48.848;8.924;2023-12-07T03:53:38;97723.19;;;16.47;100.00
8697;BME280;4385;48.848;8.924;2023-12-07T03:56:03;97725.69;;;16.52;100.00
8697;BME280;4385;48.848;8.924;2023-12-07T03:58:28;97723.16;;;16.50;100.00
8697;BME280;4385;48.848;8.924;2023-12-07T04:00:54;97721.44;;;16.49;100.00
8697;BME280;4385;48.848;8.924;2023-12-07T04:03:19;97729.94;;;16.48;100.00
8697;BME280;4385;48.848;8.924;2023-12-07T04:05:44;97724.88;;;16.48;100.00
8697;BME280;4385;48.848;8.924;2023-12-07T04:08:09;97731.63;;;16.48;100.00
8697;BME280;4385;48.848;8.924;2023-12-07T04:10:35;97729.13;;;16.46;100.00
8697;BME280;4385;48.848;8.924;2023-12-07T04:13:00;97734.19;;;16.46;100.00
8697;BME280;4385;48.848;8.924;2023-12-07T04:15:25;97729.97;;;16.45;100.00
8697;BME280;4385;48.848;8.924;2023-12-07T04:17:51;97737.63;;;16.45;100.00
8697;BME280;4385;48.848;8.924;2023-12-07T04:20:17;97738.47;;;16.45;100.00
8697;BME280;4385;48.848;8.924;2023-12-07T04:22:44;97739.31;;;16.44;100.00
8697;BME280;4385;48.848;8.924;2023-12-07T04:25:10;97729.13;;;16.44;100.00
8697;BME280;4385;48.848;8.924;2023-12-07T04:27:36;97733.38;;;16.45;100.00
8697;BME280;4385;48.848;8.924;2023-12-07T04:30:01;97738.47;;;16.44;100.00
8697;BME280;4385;48.848;8.924;2023-12-07T04:32:26;97742.69;;;16.45;100.00
8697;BME280;4385;48.848;8.924;2023-12-07T04:34:52;97744.38;;;16.46;100.00
8697;BME280;4385;48.848;8.924;2023-12-07T04:37:17;97746.91;;;16.46;100.00
8697;BME280;4385;48.848;8.924;2023-12-07T04:39:43;97741.84;;;16.46;100.00
8697;BME280;4385;48.848;8.924;2023-12-07T04:42:08;97744.38;;;16.46;100.00
8697;BME280;4385;48.848;8.924;2023-12-07T04:44:33;97748.63;;;16.47;100.00
8697;BME280;4385;48.848;8.924;2023-12-07T04:46:59;97748.63;;;16.47;100.00
8697;BME280;4385;48.848;8.924;2023-12-07T04:49:24;97741.00;;;16.45;100.00
8697;BME280;4385;48.848;8.924;2023-12-07T04:51:50;97746.09;;;16.47;100.00
8697;BME280;4385;48.848;8.924;2023-12-07T04:54:15;97746.88;;;16.49;100.00
8697;BME280;4385;48.848;8.924;2023-12-07T04:56:41;97748.63;;;16.47;100.00
8697;BME280;4385;48.848;8.924;2023-12-07T04:59:06;97745.22;;;16.47;100.00
8697;BME280;4385;48.848;8.924;2023-12-07T05:01:32;97752.84;;;16.47;100.00
8697;BME280;4385;48.848;8.924;2023-12-07T05:03:57;97746.91;;;16.46;100.00
8697;BME280;4385;48.848;8.924;2023-12-07T05:06:22;97752.00;;;16.48;100.00
8697;BME280;4385;48.848;8.924;2023-12-07T05:08:47;97750.31;;;16.48;100.00
8697;BME280;4385;48.848;8.924;2023-12-07T05:11:13;97752.84;;;16.48;100.00
8697;BME280;4385;48.848;8.924;2023-12-07T05:13:38;97752.84;;;16.48;100.00
8697;BME280;4385;48.848;8.924;2023-12-07T05:16:04;97751.16;;;16.47;100.00
8697;BME280;4385;48.848;8.924;2023-12-07T05:18:29;97755.38;;;16.48;100.00
8697;BME280;4385;48.848;8.924;2023-12-07T05:20:54;97760.47;;;16.48;100.00
8697;BME280;4385;48.848;8.924;2023-12-07T05:23:20;97761.34;;;16.47;100.00
8697;BME280;4385;48.848;8.924;2023-12-07T05:25:45;97757.94;;;16.47;100.00
8697;BME280;4385;48.848;8.924;2023-12-07T05:28:10;97757.09;;;16.46;100.00
8697;BME280;4385;48.848;8.924;2023-12-07T05:30:35;97754.53;;;16.48;100.00
8697;BME280;4385;48.848;8.924;2023-12-07T05:33:01;97755.38;;;16.48;100.00
8697;BME280;4385;48.848;8.924;2023-12-07T05:35:26;97752.84;;;16.50;100.00
8697;BME280;4385;48.848;8.924;2023-12-07T05:37:52;97749.41;;;16.51;100.00
8697;BME280;4385;48.848;8.924;2023-12-07T05:40:17;97754.50;;;16.52;100.00
8697;BME280;4385;48.848;8.924;2023-12-07T05:42:43;97752.81;;;16.51;100.00
8697;BME280;4385;48.848;8.924;2023-12-07T05:45:09;97756.22;;;16.52;100.00
8697;BME280;4385;48.848;8.924;2023-12-07T05:47:35;97760.44;;;16.53;100.00
8697;BME280;4385;48.848;8.924;2023-12-07T05:50:00;97758.75;;;16.53;100.00
8697;BME280;4385;48.848;8.924;2023-12-07T05:52:28;97752.78;;;16.53;100.00
8697;BME280;4385;48.848;8.924;2023-12-07T05:54:53;97751.13;;;16.52;100.00
8697;BME280;4385;48.848;8.924;2023-12-07T05:57:18;97751.09;;;16.53;100.00
8697;BME280;4385;48.848;8.924;2023-12-07T05:59:43;97748.56;;;16.53;100.00
8697;BME280;4385;48.848;8.924;2023-12-07T06:02:09;97747.72;;;16.53;100.00
8697;BME280;4385;48.848;8.924;2023-12-07T06:04:34;97752.78;;;16.53;100.00
8697;BME280;4385;48.848;8.924;2023-12-07T06:07:00;97762.13;;;16.52;100.00
8697;BME280;4385;48.848;8.924;2023-12-07T06:09:25;97763.81;;;16.53;100.00
8697;BME280;4385;48.848;8.924;2023-12-07T06:11:50;97759.56;;;16.54;100.00
8697;BME280;4385;48.848;8.924;2023-12-07T06:14:16;97762.09;;;16.55;100.00
8697;BME280;4385;48.848;8.924;2023-12-07T06:16:41;97760.41;;;16.56;100.00
8697;BME280;4385;48.848;8.924;2023-12-07T06:19:07;97763.78;;;16.56;100.00
8697;BME280;4385;48.848;8.924;2023-12-07T06:21:32;97751.09;;;16.55;100.00
8697;BME280;4385;48.848;8.924;2023-12-07T06:23:58;97760.41;;;16.56;100.00
8697;BME280;4385;48.848;8.924;2023-12-07T06:26:26;97762.06;;;16.57;100.00
8697;BME280;4385;48.848;8.924;2023-12-07T06:28:51;97755.28;;;16.57;100.00
8697;BME280;4385;48.848;8.924;2023-12-07T06:31:16;97764.63;;;16.57;100.00
8697;BME280;4385;48.848;8.924;2023-12-07T06:33:46;97759.50;;;16.58;100.00
8697;BME280;4385;48.848;8.924;2023-12-07T06:36:18;97763.78;;;16.60;100.00
8697;BME280;4385;48.848;8.924;2023-12-07T06:38:43;97759.50;;;16.58;100.00
8697;BME280;4385;48.848;8.924;2023-12-07T06:41:08;97758.72;;;16.56;100.00
8697;BME280;4385;48.848;8.924;2023-12-07T06:43:34;97758.72;;;16.56;100.00
8697;BME280;4385;48.848;8.924;2023-12-07T06:45:59;97768.91;;;16.55;100.00
8697;BME280;4385;48.848;8.924;2023-12-07T06:48:24;97758.75;;;16.53;100.00
8697;BME280;4385;48.848;8.924;2023-12-07T06:50:49;97763.78;;;16.56;100.00
8697;BME280;4385;48.848;8.924;2023-12-07T06:53:15;97762.13;;;16.52;100.00
8697;BME280;4385;48.848;8.924;2023-12-07T06:55:41;97765.53;;;16.51;100.00
8697;BME280;4385;48.848;8.924;2023-12-07T06:58:08;97767.22;;;16.52;100.00
8697;BME280;4385;48.848;8.924;2023-12-07T07:00:35;97773.13;;;16.54;100.00
8697;BME280;4385;48.848;8.924;2023-12-07T07:03:01;97780.75;;;16.57;100.00
8697;BME280;4385;48.848;8.924;2023-12-07T07:05:26;97771.38;;;16.63;100.00
8697;BME280;4385;48.848;8.924;2023-12-07T07:07:52;97772.13;;;16.68;100.00
8697;BME280;4385;48.848;8.924;2023-12-07T07:10:17;97773.81;;;16.74;100.00
8697;BME280;4385;48.848;8.924;2023-12-07T07:12:43;97770.34;;;16.79;100.00
8697;BME280;4385;48.848;8.924;2023-12-07T07:15:08;97771.13;;;16.85;100.00
8697;BME280;4385;48.848;8.924;2023-12-07T07:17:34;97761.75;;;16.87;100.00
8697;BME280;4385;48.848;8.924;2023-12-07T07:19:59;97759.19;;;16.90;100.00
8697;BME280;4385;48.848;8.924;2023-12-07T07:22:24;97760.84;;;16.94;100.00
8697;BME280;4385;48.848;8.924;2023-12-07T07:24:50;97762.50;;;16.97;100.00
8697;BME280;4385;48.848;8.924;2023-12-07T07:27:15;97766.72;;;16.99;100.00
8697;BME280;4385;48.848;8.924;2023-12-07T07:29:40;97767.56;;;17.00;100.00
8697;BME280;4385;48.848;8.924;2023-12-07T07:32:06;97764.13;;;17.02;100.00
8697;BME280;4385;48.848;8.924;2023-12-07T07:34:31;97762.47;;;17.01;100.00
8697;BME280;4385;48.848;8.924;2023-12-07T07:36:56;97765.84;;;17.03;100.00
8697;BME280;4385;48.848;8.924;2023-12-07T07:39:22;97765.81;;;17.08;100.00
8697;BME280;4385;48.848;8.924;2023-12-07T07:41:47;97769.97;;;17.14;100.00
8697;BME280;4385;48.848;8.924;2023-12-07T07:44:12;97775.91;;;17.14;100.00
8697;BME280;4385;48.848;8.924;2023-12-07T07:46:40;97773.34;;;17.16;100.00
8697;BME280;4385;48.848;8.924;2023-12-07T07:49:05;97763.13;;;17.19;100.00
8697;BME280;4385;48.848;8.924;2023-12-07T07:51:31;97775.81;;;17.24;100.00
8697;BME280;4385;48.848;8.924;2023-12-07T07:53:58;97778.34;;;17.25;100.00
8697;BME280;4385;48.848;8.924;2023-12-07T07:56:23;97776.59;;;17.27;100.00
8697;BME280;4385;48.848;8.924;2023-12-07T07:58:48;97777.44;;;17.28;100.00
8697;BME280;4385;48.848;8.924;2023-12-07T08:01:14;97781.66;;;17.30;100.00
8697;BME280;4385;48.848;8.924;2023-12-07T08:03:39;97785.03;;;17.32;100.00
8697;BME280;4385;48.848;8.924;2023-12-07T08:06:06;97787.56;;;17.32;100.00
8697;BME280;4385;48.848;8.924;2023-12-07T08:08:31;97781.59;;;17.33;100.00
8697;BME280;4385;48.848;8.924;2023-12-07T08:10:57;97785.00;;;17.36;100.00
8697;BME280;4385;48.848;8.924;2023-12-07T08:13:22;97773.94;;;17.37;100.00
8697;BME280;4385;48.848;8.924;2023-12-07T08:15:47;97782.41;;;17.39;100.00
8697;BME280;4385;48.848;8.924;2023-12-07T08:18:13;97777.28;;;17.40;100.00
8697;BME280;4385;48.848;8.924;2023-12-07T08:20:39;97784.88;;;17.43;100.00
8697;BME280;4385;48.848;8.924;2023-12-07T08:23:04;97774.69;;;17.45;100.00
8697;BME280;4385;48.848;8.924;2023-12-07T08:25:30;97786.53;;;17.46;100.00
8697;BME280;4385;48.848;8.924;2023-12-07T08:27:57;97783.97;;;17.48;100.00
8697;BME280;4385;48.848;8.924;2023-12-07T08:30:22;97788.22;;;17.49;100.00
8697;BME280;4385;48.848;8.924;2023-12-07T08:32:47;97788.22;;;17.50;100.00
8697;BME280;4385;48.848;8.924;2023-12-07T08:35:13;97787.34;;;17.51;100.00
8697;BME280;4385;48.848;8.924;2023-12-07T08:37:38;97779.69;;;17.51;100.00
8697;BME280;4385;48.848;8.924;2023-12-07T08:40:05;97774.56;;;17.53;100.00
8697;BME280;4385;48.848;8.924;2023-12-07T08:42:30;97764.41;;;17.51;100.00
8697;BME280;4385;48.848;8.924;2023-12-07T08:44:56;97759.28;;;17.53;100.00
8697;BME280;4385;48.848;8.924;2023-12-07T08:47:22;97752.50;;;17.53;100.00
8697;BME280;4385;48.848;8.924;2023-12-07T08:49:47;97749.06;;;17.56;100.00
8697;BME280;4385;48.848;8.924;2023-12-07T08:52:12;97752.47;;;17.55;100.00
8697;BME280;4385;48.848;8.924;2023-12-07T08:54:38;97757.56;;;17.55;100.00
8697;BME280;4385;48.848;8.924;2023-12-07T08:57:03;97752.44;;;17.56;100.00
8697;BME280;4385;48.848;8.924;2023-12-07T08:59:29;97755.78;;;17.58;100.00
8697;BME280;4385;48.848;8.924;2023-12-07T09:01:55;97743.88;;;17.61;100.00
8697;BME280;4385;48.848;8.924;2023-12-07T09:04:20;97743.81;;;17.65;100.00
8697;BME280;4385;48.848;8.924;2023-12-07T09:06:46;97742.09;;;17.67;100.00
8697;BME280;4385;48.848;8.924;2023-12-07T09:09:11;97736.94;;;17.72;100.00
8697;BME280;4385;48.848;8.924;2023-12-07T09:11:37;97741.09;;;17.76;100.00
8697;BME280;4385;48.848;8.924;2023-12-07T09:14:02;97740.19;;;17.80;100.00
8697;BME280;4385;48.848;8.924;2023-12-07T09:16:27;97745.19;;;17.87;100.00
8697;BME280;4385;48.848;8.924;2023-12-07T09:18:53;97740.03;;;17.90;100.00
8697;BME280;4385;48.848;8.924;2023-12-07T09:21:18;97734.88;;;17.93;100.00
8697;BME280;4385;48.848;8.924;2023-12-07T09:23:43;97735.69;;;17.97;100.00
8697;BME280;4385;48.848;8.924;2023-12-07T09:26:09;97732.25;;;17.99;100.00
8697;BME280;4385;48.848;8.924;2023-12-07T09:28:35;97737.28;;;18.02;100.00
8697;BME280;4385;48.848;8.924;2023-12-07T09:31:00;97737.25;;;18.05;100.00
8697;BME280;4385;48.848;8.924;2023-12-07T09:33:25;97739.75;;;18.08;100.00
8697;BME280;4385;48.848;8.924;2023-12-07T09:35:51;97743.13;;;18.11;100.00
8697;BME280;4385;48.848;8.924;2023-12-07T09:38:16;97726.94;;;18.13;100.00
8697;BME280;4385;48.848;8.924;2023-12-07T09:40:42;97739.63;;;18.18;100.00
8697;BME280;4385;48.848;8.924;2023-12-07T09:43:07;97734.47;;;18.21;100.00
8697;BME280;4385;48.848;8.924;2023-12-07T09:45:32;97733.56;;;18.25;100.00
8697;BME280;4385;48.848;8.924;2023-12-07T09:47:59;97727.53;;;18.29;100.00
8697;BME280;4385;48.848;8.924;2023-12-07T09:50:26;97735.09;;;18.34;100.00
8697;BME280;4385;48.848;8.924;2023-12-07T09:52:56;97740.16;;;18.37;100.00
8697;BME280;4385;48.848;8.924;2023-12-07T09:55:22;97740.16;;;18.37;100.00
8697;BME280;4385;48.848;8.924;2023-12-07T09:57:48;97740.16;;;18.37;100.00
8697;BME280;4385;48.848;8.924;2023-12-07T10:00:14;97730.00;;;18.34;100.00
8697;BME280;4385;48.848;8.924;2023-12-07T10:02:42;97723.25;;;18.31;100.00
8697;BME280;4385;48.848;8.924;2023-12-07T10:05:12;97712.22;;;18.29;100.00
8697;BME280;4385;48.848;8.924;2023-12-07T10:07:49;97702.00;;;18.29;100.00
8697;BME280;4385;48.848;8.924;2023-12-07T10:10:16;97699.47;;;18.29;100.00
8697;BME280;4385;48.848;8.924;2023-12-07T10:15:16;97698.66;;;18.27;100.00
8697;BME280;4385;48.848;8.924;2023-12-07T10:20:14;97692.63;;;18.31;100.00
8697;BME280;4385;48.848;8.924;2023-12-07T10:22:40;97685.00;;;18.30;100.00
8697;BME280;4385;48.848;8.924;2023-12-07T10:25:07;97692.63;;;18.31;100.00
8697;BME280;4385;48.848;8.924;2023-12-07T10:27:34;97685.75;;;18.35;100.00
8697;BME280;4385;48.848;8.924;2023-12-07T10:30:00;97680.69;;;18.34;100.00
8697;BME280;4385;48.848;8.924;2023-12-07T10:32:26;97680.69;;;18.34;100.00
8697;BME280;4385;48.848;8.924;2023-12-07T10:34:52;97683.22;;;18.34;100.00
8697;BME280;4385;48.848;8.924;2023-12-07T10:37:17;97682.38;;;18.35;100.00
8697;BME280;4385;48.848;8.924;2023-12-07T10:39:43;97682.41;;;18.33;100.00
8697;BME280;4385;48.848;8.924;2023-12-07T10:42:10;97680.72;;;18.30;100.00
8697;BME280;4385;48.848;8.924;2023-12-07T10:44:41;97678.22;;;18.29;100.00
8697;BME280;4385;48.848;8.924;2023-12-07T10:47:08;97677.34;;;18.30;100.00
8697;BME280;4385;48.848;8.924;2023-12-07T10:49:36;97678.19;;;18.30;100.00
8697;BME280;4385;48.848;8.924;2023-12-07T10:52:07;97677.34;;;18.30;100.00
8697;BME280;4385;48.848;8.924;2023-12-07T10:55:01;97666.28;;;18.31;100.00
8697;BME280;4385;48.848;8.924;2023-12-07T10:57:30;97666.25;;;18.32;100.00
8697;BME280;4385;48.848;8.924;2023-12-07T10:59:57;97660.25;;;18.34;100.00
8697;BME280;4385;48.848;8.924;2023-12-07T11:02:23;97654.34;;;18.33;100.00
8697;BME280;4385;48.848;8.924;2023-12-07T11:04:50;97638.16;;;18.34;100.00
8697;BME280;4385;48.848;8.924;2023-12-07T11:07:19;97634.69;;;18.37;100.00
8697;BME280;4385;48.848;8.924;2023-12-07T11:09:53;97628.81;;;18.35;100.00
8697;BME280;4385;48.848;8.924;2023-12-07T11:12:47;97623.69;;;18.35;100.00
8697;BME280;4385;48.848;8.924;2023-12-07T11:15:14;97623.69;;;18.35;100.00
8697;BME280;4385;48.848;8.924;2023-12-07T11:17:55;97610.97;;;18.33;100.00
8697;BME280;4385;48.848;8.924;2023-12-07T11:20:22;97619.47;;;18.32;100.00
8697;BME280;4385;48.848;8.924;2023-12-07T11:22:56;97611.00;;;18.31;100.00
8697;BME280;4385;48.848;8.924;2023-12-07T11:25:21;97604.22;;;18.29;100.00
8697;BME280;4385;48.848;8.924;2023-12-07T11:27:47;97588.09;;;18.28;100.00
8697;BME280;4385;48.848;8.924;2023-12-07T11:30:14;97586.41;;;18.27;100.00
8697;BME280;4385;48.848;8.924;2023-12-07T11:32:40;97586.41;;;18.27;100.00
8697;BME280;4385;48.848;8.924;2023-12-07T11:35:06;97580.50;;;18.25;100.00
8697;BME280;4385;48.848;8.924;2023-12-07T11:38:03;97571.97;;;18.26;100.00
8697;BME280;4385;48.848;8.924;2023-12-07T11:40:31;97572.88;;;18.25;100.00
8697;BME280;4385;48.848;8.924;2023-12-07T11:42:59;97564.34;;;18.26;100.00
8697;BME280;4385;48.848;8.924;2023-12-07T11:45:37;97567.69;;;18.28;100.00
8697;BME280;4385;48.848;8.924;2023-12-07T11:48:10;97562.53;;;18.31;100.00
8697;BME280;4385;48.848;8.924;2023-12-07T11:50:36;97557.38;;;18.35;100.00
8697;BME280;4385;48.848;8.924;2023-12-07T11:53:21;97568.34;;;18.38;100.00
8697;BME280;4385;48.848;8.924;2023-12-07T11:55:47;97560.66;;;18.40;100.00
8697;BME280;4385;48.848;8.924;2023-12-07T11:58:12;97552.94;;;18.43;100.00
8697;BME280;4385;48.848;8.924;2023-12-07T12:00:39;97556.25;;;18.47;100.00
8697;BME280;4385;48.848;8.924;2023-12-07T12:03:05;97545.13;;;18.49;100.00
8697;BME280;4385;48.848;8.924;2023-12-07T12:05:31;97532.31;;;18.52;100.00
8697;BME280;4385;48.848;8.924;2023-12-07T12:07:56;97524.63;;;18.54;100.00
8697;BME280;4385;48.848;8.924;2023-12-07T12:10:21;97526.28;;;18.56;100.00
8697;BME280;4385;48.848;8.924;2023-12-07T12:12:50;97522.00;;;18.57;100.00
8697;BME280;4385;48.848;8.924;2023-12-07T12:15:16;97521.97;;;18.59;100.00
8697;BME280;4385;48.848;8.924;2023-12-07T12:17:41;97519.34;;;18.62;100.00
8697;BME280;4385;48.848;8.924;2023-12-07T12:20:08;97512.50;;;18.64;100.00
8697;BME280;4385;48.848;8.924;2023-12-07T12:22:36;97506.50;;;18.66;100.00
8697;BME280;4385;48.848;8.924;2023-12-07T12:25:02;97501.31;;;18.69;100.00
8697;BME280;4385;48.848;8.924;2023-12-07T12:27:28;97499.66;;;18.68;100.00
8697;BME280;4385;48.848;8.924;2023-12-07T12:29:55;97499.63;;;18.70;100.00
8697;BME280;4385;48.848;8.924;2023-12-07T12:32:21;97492.81;;;18.71;100.00
8697;BME280;4385;48.848;8.924;2023-12-07T12:34:50;97480.84;;;18.71;100.00
8697;BME280;4385;48.848;8.924;2023-12-07T12:37:16;97480.00;;;18.72;100.00
8697;BME280;4385;48.848;8.924;2023-12-07T12:39:41;97476.56;;;18.73;100.00
8697;BME280;4385;48.848;8.924;2023-12-07T12:42:06;97471.47;;;18.73;100.00
8697;BME280;4385;48.848;8.924;2023-12-07T12:44:32;97468.91;;;18.73;100.00
8697;BME280;4385;48.848;8.924;2023-12-07T12:46:57;97474.00;;;18.73;100.00
8697;BME280;4385;48.848;8.924;2023-12-07T12:49:22;97472.31;;;18.74;100.00
8697;BME280;4385;48.848;8.924;2023-12-07T12:51:47;97471.47;;;18.73;100.00
8697;BME280;4385;48.848;8.924;2023-12-07T12:54:14;97472.31;;;18.74;100.00
8697;BME280;4385;48.848;8.924;2023-12-07T12:56:39;97468.84;;;18.76;100.00
8697;BME280;4385;48.848;8.924;2023-12-07T12:59:05;97462.84;;;18.77;100.00
8697;BME280;4385;48.848;8.924;2023-12-07T13:01:31;97462.06;;;18.75;100.00
8697;BME280;4385;48.848;8.924;2023-12-07T13:03:57;97460.28;;;18.77;100.00
8697;BME280;4385;48.848;8.924;2023-12-07T13:06:22;97460.25;;;18.79;100.00
8697;BME280;4385;48.848;8.924;2023-12-07T13:08:48;97462.00;;;18.78;100.00
8697;BME280;4385;48.848;8.924;2023-12-07T13:11:17;97466.22;;;18.79;100.00